createdAt,value
2023-01-04T00:00:25.570Z,5.67
2023-01-04T00:02:55.236Z,5.20
2023-01-04T00:05:25.864Z,2.30
2023-01-04T00:07:54.024Z,3.83
2023-01-04T00:10:22.143Z,4.73
2023-01-04T00:12:50.273Z,4.30
2023-01-04T00:15:20.882Z,7.27
2023-01-04T00:17:49.062Z,4.00
2023-01-04T00:20:18.520Z,3.87
2023-01-04T00:22:46.726Z,7.00
2023-01-04T00:25:17.303Z,6.73
2023-01-04T00:27:48.047Z,5.87
2023-01-04T00:30:16.371Z,7.93
2023-01-04T00:32:44.623Z,4.33
2023-01-04T00:35:27.326Z,4.23
2023-01-04T00:38:03.206Z,4.83
2023-01-04T00:40:31.408Z,4.20
2023-01-04T00:43:02.091Z,5.00
2023-01-04T00:45:32.688Z,7.20
2023-01-04T00:48:00.904Z,4.23
2023-01-04T00:50:29.063Z,3.67
2023-01-04T00:52:59.500Z,3.77
2023-01-04T00:55:29.017Z,5.13
2023-01-04T00:57:57.485Z,6.07
2023-01-04T01:00:28.186Z,2.17
2023-01-04T01:02:58.882Z,3.63
2023-01-04T01:05:29.618Z,3.00
2023-01-04T01:07:58.213Z,4.47
2023-01-04T01:10:26.313Z,2.83
2023-01-04T01:12:58.056Z,3.73
2023-01-04T01:15:28.507Z,2.43
2023-01-04T01:17:58.789Z,3.53
2023-01-04T01:20:26.871Z,3.57
2023-01-04T01:22:57.283Z,3.27
2023-01-04T01:25:25.416Z,6.07
2023-01-04T01:27:53.609Z,7.20
2023-01-04T01:30:23.076Z,2.60
2023-01-04T01:32:51.165Z,4.07
2023-01-04T01:35:21.552Z,2.70
2023-01-04T01:37:49.661Z,4.20
2023-01-04T01:40:19.855Z,3.40
2023-01-04T01:42:50.072Z,4.10
2023-01-04T01:45:40.781Z,2.13
2023-01-04T01:48:16.487Z,3.23
2023-01-04T01:50:49.923Z,6.17
2023-01-04T01:53:18.677Z,2.33
2023-01-04T01:55:51.540Z,6.60
2023-01-04T01:58:28.423Z,1.90
2023-01-04T02:00:58.246Z,4.33
2023-01-04T02:03:31.524Z,5.10
2023-01-04T02:06:02.705Z,6.47
2023-01-04T02:08:32.054Z,5.27
2023-01-04T02:11:00.251Z,5.57
2023-01-04T02:13:50.657Z,2.70
2023-01-04T02:16:31.303Z,4.57
2023-01-04T02:19:17.974Z,5.20
2023-01-04T02:22:03.411Z,3.77
2023-01-04T02:24:50.965Z,2.00
2023-01-04T02:27:44.338Z,4.13
2023-01-04T02:30:43.723Z,3.97
2023-01-04T02:33:24.473Z,2.60
2023-01-04T02:36:03.359Z,2.97
2023-01-04T02:38:38.608Z,4.13
2023-01-04T02:41:16.809Z,2.70
2023-01-04T02:44:13.128Z,3.73
2023-01-04T02:46:46.185Z,6.80
2023-01-04T02:49:33.437Z,3.67
2023-01-04T02:52:01.500Z,7.77
2023-01-04T02:54:32.452Z,6.07
2023-01-04T02:57:16.707Z,4.07
2023-01-04T03:00:20.788Z,2.60
2023-01-04T03:03:28.486Z,5.23
2023-01-04T03:06:17.004Z,5.00
2023-01-04T03:08:52.867Z,2.43
2023-01-04T03:11:38.685Z,5.43
2023-01-04T03:14:31.074Z,3.40
2023-01-04T03:17:02.927Z,2.80
2023-01-04T03:19:51.856Z,4.07
2023-01-04T03:22:41.692Z,6.03
2023-01-04T03:25:32.068Z,3.83
2023-01-04T03:28:19.813Z,6.00
2023-01-04T03:31:12.284Z,3.47
2023-01-04T03:34:00.539Z,5.93
2023-01-04T03:36:42.578Z,5.17
2023-01-04T03:39:38.028Z,4.67
2023-01-04T03:42:33.776Z,4.03
2023-01-04T03:45:30.057Z,2.10
2023-01-04T03:48:23.457Z,3.80
2023-01-04T03:50:56.067Z,3.37
2023-01-04T03:53:25.214Z,2.80
2023-01-04T03:55:58.419Z,4.00
2023-01-04T03:58:26.802Z,3.27
2023-01-04T04:01:03.532Z,4.67
2023-01-04T04:03:49.804Z,4.10
2023-01-04T04:06:35.592Z,3.60
2023-01-04T04:09:04.277Z,4.13
2023-01-04T04:11:33.961Z,4.40
2023-01-04T04:14:02.122Z,3.93
2023-01-04T04:16:30.449Z,4.97
2023-01-04T04:19:07.962Z,2.93
2023-01-04T04:21:36.548Z,3.30
2023-01-04T04:24:04.949Z,3.67
2023-01-04T04:26:36.792Z,3.17
2023-01-04T04:29:04.847Z,3.87
2023-01-04T04:31:32.972Z,3.67
2023-01-04T04:34:01.147Z,4.87
2023-01-04T04:36:31.898Z,5.23
2023-01-04T04:39:00.015Z,6.63
2023-01-04T04:41:38.827Z,6.20
2023-01-04T04:44:09.737Z,5.47
2023-01-04T04:46:38.154Z,4.10
2023-01-04T04:49:07.118Z,4.60
2023-01-04T04:51:37.876Z,5.33
2023-01-04T04:54:06.876Z,5.67
2023-01-04T04:56:36.886Z,5.03
2023-01-04T04:59:05.159Z,6.70
2023-01-04T05:01:35.023Z,8.43
2023-01-04T05:04:03.312Z,4.87
2023-01-04T05:06:31.517Z,4.93
2023-01-04T05:08:59.680Z,5.33
2023-01-04T05:11:41.732Z,5.40
2023-01-04T05:14:10.447Z,4.87
2023-01-04T05:16:39.991Z,6.20
2023-01-04T05:19:08.241Z,6.30
2023-01-04T05:21:36.338Z,7.77
2023-01-04T05:24:04.795Z,6.63
2023-01-04T05:26:32.969Z,9.67
2023-01-04T05:29:01.077Z,6.63
2023-01-04T05:31:28.470Z,7.20
2023-01-04T05:34:00.077Z,7.17
2023-01-04T05:36:28.539Z,7.27
2023-01-04T05:38:59.016Z,7.30
2023-01-04T05:41:41.010Z,6.83
2023-01-04T05:44:11.231Z,7.00
2023-01-04T05:46:39.362Z,7.47
2023-01-04T05:49:08.820Z,7.73
2023-01-04T05:51:36.873Z,7.00
2023-01-04T05:54:07.178Z,7.70
2023-01-04T05:56:35.272Z,6.87
2023-01-04T05:59:06.423Z,6.90
2023-01-04T06:01:34.572Z,7.50
2023-01-04T06:04:02.728Z,6.43
2023-01-04T06:06:34.382Z,6.10
2023-01-04T06:09:04.954Z,5.70
2023-01-04T06:11:33.048Z,6.63
2023-01-04T06:14:01.158Z,5.23
2023-01-04T06:16:31.754Z,5.07
2023-01-04T06:18:59.905Z,5.20
2023-01-04T06:21:30.331Z,4.60
2023-01-04T06:23:59.776Z,4.60
2023-01-04T06:26:27.896Z,4.20
2023-01-04T06:28:55.955Z,3.93
2023-01-04T06:31:26.174Z,3.63
2023-01-04T06:33:54.295Z,3.13
2023-01-04T06:36:22.647Z,3.10
2023-01-04T06:38:50.776Z,2.60
2023-01-04T06:41:20.348Z,2.47
2023-01-04T06:43:48.441Z,3.80
2023-01-04T06:46:16.587Z,2.13
2023-01-04T06:48:44.751Z,2.00
2023-01-04T06:51:13.020Z,1.83
2023-01-04T06:53:41.347Z,2.93
2023-01-04T06:56:11.699Z,3.77
2023-01-04T06:58:43.380Z,1.40
2023-01-04T07:01:11.585Z,1.70
2023-01-04T07:03:39.804Z,1.13
2023-01-04T07:06:10.499Z,2.50
2023-01-04T07:08:40.925Z,1.30
2023-01-04T07:11:09.034Z,3.23
2023-01-04T07:13:37.104Z,1.33
2023-01-04T07:16:07.189Z,2.20
2023-01-04T07:18:35.306Z,1.43
2023-01-04T07:21:03.476Z,1.47
2023-01-04T07:23:31.571Z,1.67
2023-01-04T07:26:02.836Z,3.93
2023-01-04T07:28:51.402Z,2.53
2023-01-04T07:31:21.013Z,4.53
2023-01-04T07:33:51.946Z,2.03
2023-01-04T07:36:20.087Z,1.90
2023-01-04T07:38:50.695Z,3.60
2023-01-04T07:41:18.783Z,2.40
2023-01-04T07:43:47.061Z,1.50
2023-01-04T07:46:15.222Z,2.50
2023-01-04T07:48:46.933Z,1.77
2023-01-04T07:51:15.216Z,2.10
2023-01-04T07:53:43.283Z,1.93
2023-01-04T07:56:18.363Z,4.00
2023-01-04T07:58:46.933Z,3.97
2023-01-04T08:01:17.530Z,1.30
2023-01-04T08:03:47.603Z,1.57
2023-01-04T08:06:17.919Z,1.43
2023-01-04T08:08:48.394Z,2.07
2023-01-04T08:11:18.925Z,1.60
2023-01-04T08:13:49.362Z,2.67
2023-01-04T08:16:22.323Z,3.63
2023-01-04T08:18:54.342Z,1.87
2023-01-04T08:21:22.996Z,1.97
2023-01-04T08:23:54.414Z,1.97
2023-01-04T08:26:22.937Z,1.70
2023-01-04T08:28:53.335Z,1.67
2023-01-04T08:31:22.797Z,1.97
2023-01-04T08:33:53.113Z,2.60
2023-01-04T08:36:27.512Z,1.80
2023-01-04T08:39:01.451Z,2.23
2023-01-04T08:44:19.162Z,2.27
2023-01-04T08:46:50.205Z,2.40
2023-01-04T08:49:20.538Z,1.93
2023-01-04T08:51:49.356Z,2.17
2023-01-04T08:54:19.923Z,1.40
2023-01-04T08:56:48.002Z,1.50
2023-01-04T08:59:18.442Z,1.70
2023-01-04T09:01:46.960Z,1.60
2023-01-04T09:04:15.397Z,1.87
2023-01-04T09:06:47.395Z,1.90
2023-01-04T09:09:16.798Z,1.83
2023-01-04T09:11:44.912Z,1.70
2023-01-04T09:14:13.992Z,1.90
2023-01-04T09:16:42.376Z,2.23
2023-01-04T09:19:10.585Z,2.40
2023-01-04T09:21:38.953Z,2.53
2023-01-04T09:24:08.601Z,2.33
2023-01-04T09:26:36.741Z,2.53
2023-01-04T09:29:07.857Z,2.20
2023-01-04T09:31:38.243Z,3.20
2023-01-04T09:34:14.518Z,2.40
2023-01-04T09:36:44.093Z,2.20
2023-01-04T09:39:22.269Z,2.43
2023-01-04T09:41:56.846Z,5.40
2023-01-04T09:47:33.776Z,2.60
2023-01-04T09:50:08.695Z,1.60
2023-01-04T09:52:47.710Z,2.43
2023-01-04T09:55:38.757Z,2.23
2023-01-04T09:58:21.858Z,2.90
2023-01-04T10:00:55.190Z,2.17
2023-01-04T10:03:28.874Z,1.50
2023-01-04T10:06:01.253Z,1.73
2023-01-04T10:08:32.358Z,2.43
2023-01-04T10:11:15.942Z,2.50
2023-01-04T10:14:15.877Z,1.43
2023-01-04T10:17:13.581Z,2.20
2023-01-04T10:23:28.693Z,2.23
2023-01-04T10:25:59.025Z,1.40
2023-01-04T10:28:44.392Z,1.73
2023-01-04T10:31:39.308Z,1.37
2023-01-04T10:34:21.964Z,1.30
2023-01-04T10:36:52.723Z,3.20
2023-01-04T10:39:28.547Z,4.30
2023-01-04T10:42:01.988Z,2.00
2023-01-04T10:44:43.791Z,2.30
2023-01-04T10:47:15.622Z,2.90
2023-01-04T10:49:50.871Z,1.50
2023-01-04T10:52:26.908Z,2.20
2023-01-04T10:54:59.462Z,1.57
2023-01-04T10:57:35.308Z,4.73
2023-01-04T11:00:12.472Z,4.53
2023-01-04T11:02:46.070Z,2.80
2023-01-04T11:05:21.230Z,2.73
2023-01-04T11:07:56.562Z,3.30
2023-01-04T11:10:29.361Z,1.73
2023-01-04T11:12:57.594Z,4.40
2023-01-04T11:15:30.339Z,1.60
2023-01-04T11:18:03.749Z,3.77
2023-01-04T11:20:37.782Z,2.60
2023-01-04T11:23:10.448Z,1.67
2023-01-04T11:25:43.937Z,2.97
2023-01-04T11:28:19.565Z,1.00
2023-01-04T11:30:57.365Z,2.23
2023-01-04T11:33:27.742Z,2.57
2023-01-04T11:35:59.580Z,1.50
2023-01-04T11:38:31.698Z,2.83
2023-01-04T11:41:05.438Z,1.83
2023-01-04T11:43:35.027Z,2.23
2023-01-04T11:46:07.250Z,2.40
2023-01-04T11:48:42.108Z,1.80
2023-01-04T11:51:21.856Z,1.60
2023-01-04T11:54:21.284Z,1.20
2023-01-04T11:57:10.783Z,0.97
2023-01-04T11:59:39.425Z,3.50
2023-01-04T12:02:59.632Z,1.40
2023-01-04T12:05:29.128Z,1.90
2023-01-04T12:07:59.160Z,2.10
2023-01-04T12:10:30.397Z,4.00
2023-01-04T12:13:02.299Z,1.17
2023-01-04T12:15:38.729Z,1.20
2023-01-04T12:18:14.222Z,1.43
2023-01-04T12:20:42.358Z,1.30
2023-01-04T12:23:14.403Z,1.30
2023-01-04T12:25:49.598Z,1.20
2023-01-04T12:28:40.056Z,1.80
2023-01-04T12:31:32.097Z,0.80
2023-01-04T12:34:43.402Z,2.10
2023-01-04T12:37:32.789Z,1.77
2023-01-04T12:40:05.237Z,2.53
2023-01-04T12:42:33.390Z,1.77
2023-01-04T12:45:21.696Z,2.43
2023-01-04T12:48:12.704Z,1.90
2023-01-04T12:51:32.363Z,3.27
2023-01-04T12:54:03.245Z,2.30
2023-01-04T12:57:08.626Z,1.80
2023-01-04T12:59:40.365Z,0.77
2023-01-04T13:02:23.551Z,3.13
2023-01-04T13:05:24.206Z,2.73
2023-01-04T13:07:46.057Z,1.23
2023-01-04T13:10:26.734Z,2.37
2023-01-04T13:13:19.584Z,0.70
2023-01-04T13:16:01.765Z,1.30
2023-01-04T13:18:36.429Z,1.53
2023-01-04T13:21:11.218Z,2.40
2023-01-04T13:23:40.572Z,1.47
2023-01-04T13:26:34.188Z,0.90
2023-01-04T13:29:23.866Z,2.70
2023-01-04T13:32:01.290Z,1.63
2023-01-04T13:34:32.917Z,1.37
2023-01-04T13:37:08.294Z,2.03
2023-01-04T13:39:37.803Z,1.40
2023-01-04T13:42:08.023Z,2.27
2023-01-04T13:47:51.476Z,1.10
2023-01-04T13:50:30.689Z,2.30
2023-01-04T13:53:07.033Z,3.97
2023-01-04T13:55:38.156Z,1.73
2023-01-04T13:58:07.762Z,2.87
2023-01-04T14:00:42.671Z,4.27
2023-01-04T14:03:31.407Z,3.33
2023-01-04T14:06:18.363Z,2.77
2023-01-04T14:09:00.240Z,4.83
2023-01-04T14:11:50.918Z,1.90
2023-01-04T14:14:38.560Z,2.30
2023-01-04T14:17:35.798Z,3.77
2023-01-04T14:20:06.554Z,3.70
2023-01-04T14:22:37.893Z,5.90
2023-01-04T14:25:56.548Z,2.57
2023-01-04T14:28:32.562Z,5.10
2023-01-04T14:31:26.609Z,2.20
2023-01-04T14:33:55.268Z,8.03
2023-01-04T14:36:28.324Z,4.70
2023-01-04T14:39:09.400Z,2.03
2023-01-04T14:41:42.354Z,4.37
2023-01-04T14:44:13.567Z,4.17
2023-01-04T14:46:43.761Z,6.97
2023-01-04T14:49:14.648Z,3.03
2023-01-04T14:51:49.076Z,4.90
2023-01-04T14:54:24.971Z,4.60
2023-01-04T14:56:54.351Z,4.90
2023-01-04T14:59:26.832Z,4.90
2023-01-04T15:01:56.758Z,6.70
2023-01-04T15:04:25.524Z,2.80
2023-01-04T15:06:57.217Z,2.67
2023-01-04T15:09:26.105Z,4.30
2023-01-04T15:11:54.416Z,5.30
2023-01-04T15:14:22.824Z,5.93
2023-01-04T15:16:50.979Z,4.33
2023-01-04T15:19:21.848Z,3.73
2023-01-04T15:21:53.885Z,7.90
2023-01-04T15:24:24.222Z,5.87
2023-01-04T15:26:54.425Z,7.63
2023-01-04T15:29:22.664Z,4.07
2023-01-04T15:31:50.974Z,6.80
2023-01-04T15:34:22.981Z,3.13
2023-01-04T15:36:52.092Z,3.10
2023-01-04T15:39:21.567Z,3.87
2023-01-04T15:42:07.121Z,4.33
2023-01-04T15:44:35.191Z,4.50
2023-01-04T15:47:03.417Z,6.40
2023-01-04T15:49:31.746Z,6.17
2023-01-04T15:51:59.930Z,4.97
2023-01-04T15:54:29.954Z,3.47
2023-01-04T15:56:58.292Z,4.87
2023-01-04T15:59:26.767Z,4.63
2023-01-04T16:01:55.104Z,6.10
2023-01-04T16:04:26.013Z,7.53
2023-01-04T16:06:56.528Z,5.63
2023-01-04T16:09:24.899Z,6.07
2023-01-04T16:12:11.812Z,4.93
2023-01-04T16:14:42.280Z,5.37
2023-01-04T16:17:10.493Z,4.43
2023-01-04T16:19:38.664Z,7.90
2023-01-04T16:22:06.819Z,4.37
2023-01-04T16:25:09.245Z,4.67
2023-01-04T16:27:26.353Z,4.83
2023-01-04T16:29:57.905Z,6.13
2023-01-04T16:32:26.098Z,6.47
2023-01-04T16:34:56.955Z,4.77
2023-01-04T16:37:28.636Z,6.73
2023-01-04T16:40:06.279Z,10.90
2023-01-04T16:42:39.312Z,5.90
2023-01-04T16:45:10.799Z,9.23
2023-01-04T16:47:43.683Z,6.60
2023-01-04T16:50:13.125Z,3.17
2023-01-04T16:52:41.579Z,4.67
2023-01-04T16:55:10.823Z,4.83
2023-01-04T16:57:42.861Z,10.17
2023-01-04T17:00:14.389Z,11.47
2023-01-04T17:02:42.925Z,8.77
2023-01-04T17:05:11.061Z,10.67
2023-01-04T17:07:39.206Z,13.37
2023-01-04T17:10:08.306Z,14.07
2023-01-04T17:12:47.151Z,8.60
2023-01-04T17:18:06.639Z,13.10
2023-01-04T17:20:35.000Z,8.57
2023-01-04T17:23:03.149Z,8.37
2023-01-04T17:25:33.584Z,8.23
2023-01-04T17:28:01.762Z,6.93
2023-01-04T17:30:33.646Z,11.53
2023-01-04T17:33:01.800Z,9.63
2023-01-04T17:35:32.244Z,10.93
2023-01-04T17:38:00.416Z,9.37
2023-01-04T17:40:28.542Z,9.60
2023-01-04T17:42:56.751Z,16.00
2023-01-04T17:45:25.047Z,9.00
2023-01-04T17:47:57.015Z,8.60
2023-01-04T17:50:25.132Z,8.67
2023-01-04T17:52:53.442Z,13.13
2023-01-04T17:55:24.208Z,7.77
2023-01-04T17:57:52.581Z,11.53
2023-01-04T18:00:23.231Z,11.60
2023-01-04T18:02:53.912Z,9.23
2023-01-04T18:05:23.777Z,11.40
2023-01-04T18:07:52.461Z,11.40
2023-01-04T18:10:33.302Z,9.63
2023-01-04T18:13:09.386Z,11.20
2023-01-04T18:15:44.088Z,14.70
2023-01-04T18:18:16.982Z,12.27
2023-01-04T18:20:49.275Z,9.83
2023-01-04T18:23:25.306Z,13.97
2023-01-04T18:26:01.821Z,17.77
2023-01-04T18:28:32.707Z,16.70
2023-01-04T18:31:01.064Z,10.93
2023-01-04T18:33:29.271Z,11.07
2023-01-04T18:36:03.273Z,10.57
2023-01-04T18:38:31.478Z,10.60
2023-01-04T18:40:59.622Z,12.50
2023-01-04T18:43:27.825Z,13.80
2023-01-04T18:45:56.076Z,16.00
2023-01-04T18:48:24.300Z,11.03
2023-01-04T18:50:52.539Z,15.63
2023-01-04T18:53:22.028Z,12.37
2023-01-04T18:55:50.160Z,10.57
2023-01-04T18:58:18.270Z,10.77
2023-01-04T19:00:46.495Z,13.07
2023-01-04T19:03:18.427Z,12.80
2023-01-04T19:05:46.945Z,18.07
2023-01-04T19:08:17.130Z,15.13
2023-01-04T19:10:46.608Z,10.13
2023-01-04T19:13:17.180Z,10.93
2023-01-04T19:16:14.133Z,19.93
2023-01-04T19:18:44.881Z,9.90
2023-01-04T19:21:13.011Z,14.20
2023-01-04T19:23:43.520Z,18.03
2023-01-04T19:26:13.008Z,15.40
2023-01-04T19:28:41.108Z,16.63
2023-01-04T19:31:11.791Z,20.40
2023-01-04T19:33:40.017Z,11.27
2023-01-04T19:36:13.058Z,15.77
2023-01-04T19:38:41.319Z,19.60
2023-01-04T19:41:11.768Z,17.57
2023-01-04T19:43:41.300Z,15.63
2023-01-04T19:46:12.547Z,16.97
2023-01-04T19:48:41.131Z,14.73
2023-01-04T19:51:14.484Z,16.33
2023-01-04T19:53:43.908Z,14.63
2023-01-04T19:56:16.843Z,17.27
2023-01-04T19:58:46.503Z,24.43
2023-01-04T20:01:18.649Z,17.20
2023-01-04T20:03:47.141Z,21.77
2023-01-04T20:06:18.212Z,17.67
2023-01-04T20:08:46.385Z,23.30
2023-01-04T20:11:14.698Z,23.70
2023-01-04T20:13:42.841Z,21.63
2023-01-04T20:16:12.695Z,22.03
2023-01-04T20:18:40.832Z,16.93
2023-01-04T20:21:10.717Z,19.20
2023-01-04T20:23:41.573Z,22.77
2023-01-04T20:26:11.721Z,22.13
2023-01-04T20:28:43.973Z,28.60
2023-01-04T20:31:15.566Z,19.47
2023-01-04T20:33:43.872Z,21.60
2023-01-04T20:36:16.445Z,18.43
2023-01-04T20:38:46.195Z,25.00
2023-01-04T20:41:17.218Z,29.53
2023-01-04T20:43:46.468Z,24.23
2023-01-04T20:46:18.509Z,14.73
2023-01-04T20:48:49.521Z,18.70
2023-01-04T20:51:19.561Z,24.77
2023-01-04T20:53:47.854Z,16.87
2023-01-04T20:56:17.662Z,21.33
2023-01-04T20:58:49.072Z,24.93
2023-01-04T21:01:20.372Z,26.00
2023-01-04T21:03:51.259Z,20.93
2023-01-04T21:06:19.784Z,18.57
2023-01-04T21:08:50.351Z,20.80
2023-01-04T21:11:18.671Z,25.33
2023-01-04T21:13:46.812Z,22.00
2023-01-04T21:16:15.478Z,25.17
2023-01-04T21:18:45.101Z,24.50
2023-01-04T21:21:15.832Z,23.20
2023-01-04T21:23:49.510Z,30.17
2023-01-04T21:26:21.744Z,21.70
2023-01-04T21:28:49.944Z,24.43
2023-01-04T21:31:23.899Z,21.20
2023-01-04T21:33:54.782Z,18.93
2023-01-04T21:36:27.811Z,23.47
2023-01-04T21:38:58.248Z,19.50
2023-01-04T21:41:27.120Z,20.03
2023-01-04T21:43:57.422Z,27.87
2023-01-04T21:46:26.793Z,21.83
2023-01-04T21:49:01.448Z,21.13
2023-01-04T21:51:32.132Z,24.03
2023-01-04T21:54:01.601Z,20.67
2023-01-04T21:56:31.528Z,21.80
2023-01-04T21:58:59.868Z,24.73
2023-01-04T22:01:34.430Z,21.00
2023-01-04T22:04:16.018Z,17.80
2023-01-04T22:06:44.191Z,28.50
2023-01-04T22:09:12.310Z,23.00
2023-01-04T22:11:40.903Z,30.80
2023-01-04T22:14:09.108Z,24.20
2023-01-04T22:16:37.313Z,22.17
2023-01-04T22:19:05.474Z,27.43
2023-01-04T22:21:37.028Z,27.27
2023-01-04T22:24:05.711Z,24.70
2023-01-04T22:26:34.262Z,25.43
2023-01-04T22:29:02.605Z,24.97
2023-01-04T22:31:31.071Z,25.70
2023-01-04T22:33:59.324Z,18.17
2023-01-04T22:36:27.837Z,19.67
2023-01-04T22:38:59.566Z,23.73
2023-01-04T22:41:29.254Z,21.17
2023-01-04T22:43:58.451Z,22.57
2023-01-04T22:46:27.900Z,27.90
2023-01-04T22:48:59.036Z,25.73
2023-01-04T22:51:28.342Z,23.83
2023-01-04T22:53:57.589Z,23.70
2023-01-04T22:56:27.632Z,20.63
2023-01-04T22:58:57.843Z,26.93
2023-01-04T23:01:28.061Z,23.57
2023-01-04T23:04:00.154Z,27.17
2023-01-04T23:06:31.786Z,22.63
2023-01-04T23:09:02.094Z,25.00
2023-01-04T23:11:34.012Z,24.10
2023-01-04T23:14:03.611Z,22.63
2023-01-04T23:16:34.147Z,31.30
2023-01-04T23:19:06.012Z,23.17
2023-01-04T23:21:34.963Z,30.53
2023-01-04T23:24:03.192Z,24.03
2023-01-04T23:26:33.688Z,21.80
2023-01-04T23:29:04.560Z,22.83
2023-01-04T23:31:34.177Z,17.83
2023-01-04T23:34:06.802Z,19.97
2023-01-04T23:36:39.356Z,26.27
2023-01-04T23:39:13.142Z,24.47
2023-01-04T23:41:46.074Z,29.17
2023-01-04T23:44:16.966Z,21.10
2023-01-04T23:46:47.939Z,18.60
2023-01-04T23:49:16.071Z,16.50
2023-01-04T23:51:44.315Z,21.43
2023-01-04T23:54:12.583Z,23.43
2023-01-04T23:56:42.437Z,18.53
2023-01-04T23:59:11.795Z,18.53
